createdAt,value
2022-12-18T00:01:20.856Z,-9.09
2022-12-18T00:03:47.899Z,-9.43
2022-12-18T00:06:16.426Z,-9.53
2022-12-18T00:08:43.275Z,-9.50
2022-12-18T00:11:12.908Z,-9.38
2022-12-18T00:13:39.893Z,-9.60
2022-12-18T00:16:10.776Z,-9.39
2022-12-18T00:18:38.091Z,-9.31
2022-12-18T00:21:07.135Z,-9.47
2022-12-18T00:23:35.308Z,-9.71
2022-12-18T00:26:04.054Z,-9.93
2022-12-18T00:28:30.713Z,-9.98
2022-12-18T00:31:08.103Z,-10.03
2022-12-18T00:33:35.765Z,-10.08
2022-12-18T00:36:03.659Z,-10.05
2022-12-18T00:38:30.101Z,-9.75
2022-12-18T00:40:56.763Z,-9.58
2022-12-18T00:43:23.185Z,-9.64
2022-12-18T00:45:50.178Z,-9.78
2022-12-18T00:48:16.818Z,-9.55
2022-12-18T00:50:43.442Z,-9.87
2022-12-18T00:53:09.848Z,-9.82
2022-12-18T00:55:37.929Z,-9.97
2022-12-18T00:58:04.554Z,-9.95
2022-12-18T01:00:31.573Z,-9.80
2022-12-18T01:02:58.181Z,-9.98
2022-12-18T01:05:24.707Z,-9.86
2022-12-18T01:07:51.092Z,-9.86
2022-12-18T01:10:17.738Z,-9.73
2022-12-18T01:12:44.741Z,-9.84
2022-12-18T01:15:13.338Z,-9.83
2022-12-18T01:17:40.027Z,-9.78
2022-12-18T01:20:07.227Z,-9.83
2022-12-18T01:22:33.615Z,-10.00
2022-12-18T01:25:00.085Z,-10.02
2022-12-18T01:27:26.478Z,-10.10
2022-12-18T01:29:52.914Z,-9.93
2022-12-18T01:32:19.372Z,-9.88
2022-12-18T01:34:45.991Z,-9.99
2022-12-18T01:37:12.763Z,-10.10
2022-12-18T01:39:39.222Z,-9.98
2022-12-18T01:42:15.629Z,-9.80
2022-12-18T01:44:54.187Z,-9.93
2022-12-18T01:47:45.552Z,-9.99
2022-12-18T01:50:15.731Z,-10.22
2022-12-18T01:52:44.690Z,-10.27
2022-12-18T01:55:13.661Z,-10.39
2022-12-18T01:57:41.319Z,-10.24
2022-12-18T02:00:19.686Z,-10.30
2022-12-18T02:02:49.197Z,-10.34
2022-12-18T02:05:26.331Z,-10.39
2022-12-18T02:08:11.724Z,-10.34
2022-12-18T02:10:58.328Z,-10.38
2022-12-18T02:13:44.427Z,-10.44
2022-12-18T02:16:25.443Z,-10.43
2022-12-18T02:18:58.841Z,-10.48
2022-12-18T02:21:43.806Z,-10.44
2022-12-18T02:24:58.792Z,-10.26
2022-12-18T02:27:25.850Z,-10.35
2022-12-18T02:29:58.573Z,-10.33
2022-12-18T02:32:28.349Z,-10.48
2022-12-18T02:34:58.094Z,-10.52
2022-12-18T02:37:27.667Z,-10.95
2022-12-18T02:39:57.848Z,-10.78
2022-12-18T02:42:25.017Z,-10.91
2022-12-18T02:44:52.893Z,-10.88
2022-12-18T02:47:23.335Z,-11.06
2022-12-18T02:49:58.810Z,-10.79
2022-12-18T02:52:43.493Z,-10.86
2022-12-18T02:55:30.733Z,-10.86
2022-12-18T02:58:04.190Z,-10.82
2022-12-18T03:00:39.439Z,-10.80
2022-12-18T03:03:16.920Z,-10.80
2022-12-18T03:05:50.681Z,-11.00
2022-12-18T03:08:25.074Z,-10.71
2022-12-18T03:11:02.856Z,-10.83
2022-12-18T03:13:34.337Z,-10.98
2022-12-18T03:16:02.468Z,-10.97
2022-12-18T03:18:39.642Z,-10.89
2022-12-18T03:21:09.068Z,-10.79
2022-12-18T03:23:41.192Z,-11.13
2022-12-18T03:26:12.448Z,-10.98
2022-12-18T03:28:46.200Z,-10.91
2022-12-18T03:31:15.126Z,-11.01
2022-12-18T03:33:54.726Z,-10.91
2022-12-18T03:36:22.461Z,-10.97
2022-12-18T03:38:49.003Z,-10.93
2022-12-18T03:41:35.047Z,-11.27
2022-12-18T03:44:19.335Z,-11.01
2022-12-18T03:47:04.127Z,-11.09
2022-12-18T03:49:48.728Z,-11.16
2022-12-18T03:52:18.209Z,-10.97
2022-12-18T03:54:46.510Z,-10.95
2022-12-18T03:57:18.088Z,-11.04
2022-12-18T03:59:47.019Z,-11.13
2022-12-18T04:02:16.954Z,-10.97
2022-12-18T04:04:45.545Z,-11.05
2022-12-18T04:07:14.390Z,-11.09
2022-12-18T04:09:43.071Z,-11.44
2022-12-18T04:12:10.178Z,-11.33
2022-12-18T04:14:36.711Z,-11.37
2022-12-18T04:17:04.020Z,-11.54
2022-12-18T04:19:30.462Z,-11.39
2022-12-18T04:21:57.623Z,-11.64
2022-12-18T04:24:24.195Z,-11.48
2022-12-18T04:26:50.713Z,-11.69
2022-12-18T04:29:17.399Z,-11.68
2022-12-18T04:31:43.861Z,-11.67
2022-12-18T04:34:10.308Z,-11.59
2022-12-18T04:36:36.818Z,-11.53
2022-12-18T04:39:03.268Z,-11.61
2022-12-18T04:41:29.723Z,-11.53
2022-12-18T04:43:56.225Z,-11.49
2022-12-18T04:46:22.705Z,-11.63
2022-12-18T04:48:49.400Z,-11.49
2022-12-18T04:51:15.936Z,-11.62
2022-12-18T04:53:42.724Z,-11.87
2022-12-18T04:56:12.444Z,-11.91
2022-12-18T04:58:40.632Z,-11.71
2022-12-18T05:01:11.058Z,-11.82
2022-12-18T05:03:38.619Z,-12.00
2022-12-18T05:06:06.797Z,-11.91
2022-12-18T05:08:33.688Z,-11.85
2022-12-18T05:11:08.242Z,-11.78
2022-12-18T05:13:36.422Z,-11.89
2022-12-18T05:16:03.933Z,-11.67
2022-12-18T05:18:30.638Z,-11.76
2022-12-18T05:20:57.215Z,-11.72
2022-12-18T05:23:24.960Z,-11.91
2022-12-18T05:25:58.958Z,-11.96
2022-12-18T05:28:27.298Z,-11.88
2022-12-18T05:30:56.435Z,-11.95
2022-12-18T05:33:25.541Z,-11.85
2022-12-18T05:35:57.200Z,-11.76
2022-12-18T05:38:25.878Z,-11.90
2022-12-18T05:40:53.317Z,-12.01
2022-12-18T05:43:22.828Z,-11.89
2022-12-18T05:45:50.105Z,-11.94
2022-12-18T05:48:17.496Z,-12.02
2022-12-18T05:50:48.343Z,-12.04
2022-12-18T05:53:17.083Z,-12.09
2022-12-18T05:55:46.669Z,-12.14
2022-12-18T05:58:15.655Z,-12.11
2022-12-18T06:00:44.434Z,-12.06
2022-12-18T06:03:13.018Z,-12.09
2022-12-18T06:05:42.139Z,-12.24
2022-12-18T06:08:08.797Z,-12.17
2022-12-18T06:10:35.273Z,-12.26
2022-12-18T06:13:01.763Z,-12.32
2022-12-18T06:15:28.423Z,-12.30
2022-12-18T06:17:55.218Z,-12.28
2022-12-18T06:20:21.654Z,-12.28
2022-12-18T06:22:48.350Z,-11.99
2022-12-18T06:25:14.927Z,-12.24
2022-12-18T06:27:41.433Z,-12.41
2022-12-18T06:30:09.629Z,-12.46
2022-12-18T06:32:36.052Z,-12.47
2022-12-18T06:35:02.542Z,-12.41
2022-12-18T06:37:29.249Z,-12.30
2022-12-18T06:39:55.789Z,-12.33
2022-12-18T06:42:22.391Z,-12.21
2022-12-18T06:44:49.044Z,-12.22
2022-12-18T06:47:15.503Z,-12.24
2022-12-18T06:49:41.968Z,-12.25
2022-12-18T06:52:08.363Z,-12.30
2022-12-18T06:54:34.851Z,-12.28
2022-12-18T06:57:01.325Z,-12.27
2022-12-18T06:59:27.778Z,-12.40
2022-12-18T07:01:54.790Z,-12.49
2022-12-18T07:04:21.337Z,-12.44
2022-12-18T07:06:47.774Z,-12.49
2022-12-18T07:09:14.199Z,-12.52
2022-12-18T07:11:40.567Z,-12.51
2022-12-18T07:14:09.848Z,-12.59
2022-12-18T07:16:36.612Z,-12.50
2022-12-18T07:19:03.196Z,-12.46
2022-12-18T07:21:29.739Z,-12.42
2022-12-18T07:23:56.153Z,-12.47
2022-12-18T07:26:23.001Z,-12.47
2022-12-18T07:28:49.978Z,-12.48
2022-12-18T07:31:22.061Z,-12.33
2022-12-18T07:33:49.183Z,-12.45
2022-12-18T07:36:15.824Z,-12.44
2022-12-18T07:38:42.629Z,-12.38
2022-12-18T07:41:11.951Z,-12.38
2022-12-18T07:43:40.126Z,-12.35
2022-12-18T07:46:08.425Z,-12.34
2022-12-18T07:48:34.961Z,-12.45
2022-12-18T07:51:06.702Z,-12.38
2022-12-18T07:53:34.877Z,-12.42
2022-12-18T07:58:51.220Z,-12.45
2022-12-18T08:01:18.150Z,-12.50
2022-12-18T08:03:45.093Z,-12.27
2022-12-18T08:06:11.606Z,-12.31
2022-12-18T08:08:38.393Z,-12.15
2022-12-18T08:11:05.052Z,-11.20
2022-12-18T08:13:31.747Z,-10.91
2022-12-18T08:16:02.431Z,-10.80
2022-12-18T08:18:29.226Z,-9.92
2022-12-18T08:20:56.605Z,-9.42
2022-12-18T08:23:26.459Z,-9.29
2022-12-18T08:25:55.020Z,-9.27
2022-12-18T08:28:21.508Z,-9.07
2022-12-18T08:30:53.205Z,-9.75
2022-12-18T08:33:19.759Z,-9.34
2022-12-18T08:35:46.367Z,-9.07
2022-12-18T08:38:12.782Z,-7.64
2022-12-18T08:40:39.308Z,-7.73
2022-12-18T08:43:41.640Z,-7.41
2022-12-18T08:46:08.514Z,-7.64
2022-12-18T08:48:34.980Z,-8.24
2022-12-18T08:51:01.662Z,-8.42
2022-12-18T08:53:34.078Z,-8.62
2022-12-18T08:56:02.216Z,-8.47
2022-12-18T08:58:28.648Z,-8.23
2022-12-18T09:00:55.113Z,-8.18
2022-12-18T09:03:23.557Z,-6.19
2022-12-18T09:05:50.091Z,-5.54
2022-12-18T09:08:16.496Z,-5.83
2022-12-18T09:10:45.901Z,-6.97
2022-12-18T09:13:13.314Z,-7.13
2022-12-18T09:15:44.153Z,-8.14
2022-12-18T09:18:10.595Z,-8.06
2022-12-18T09:20:37.758Z,-7.94
2022-12-18T09:23:04.742Z,-7.85
2022-12-18T09:25:34.074Z,-6.97
2022-12-18T09:28:01.145Z,-5.64
2022-12-18T09:30:28.209Z,-6.01
2022-12-18T09:32:54.904Z,-5.02
2022-12-18T09:35:21.391Z,-4.25
2022-12-18T09:37:48.069Z,-4.07
2022-12-18T09:40:20.651Z,-4.74
2022-12-18T09:42:53.154Z,-4.56
2022-12-18T09:45:19.790Z,-5.36
2022-12-18T09:47:48.515Z,-5.34
2022-12-18T09:50:35.170Z,-5.06
2022-12-18T09:53:11.073Z,-4.26
2022-12-18T09:55:42.140Z,-3.67
2022-12-18T09:58:45.314Z,-3.16
2022-12-18T10:01:15.457Z,-3.56
2022-12-18T10:03:42.231Z,-4.57
2022-12-18T10:06:16.821Z,-4.56
2022-12-18T10:09:13.005Z,-4.04
2022-12-18T10:11:54.276Z,-3.73
2022-12-18T10:14:39.215Z,-4.64
2022-12-18T10:17:36.692Z,-4.05
2022-12-18T10:20:21.188Z,-4.71
2022-12-18T10:22:51.576Z,-4.35
2022-12-18T10:25:22.660Z,-4.15
2022-12-18T10:27:52.429Z,-3.68
2022-12-18T10:30:21.995Z,-3.64
2022-12-18T10:32:48.450Z,-3.06
2022-12-18T10:35:20.148Z,-2.87
2022-12-18T10:38:22.683Z,-2.91
2022-12-18T10:40:56.753Z,-3.84
2022-12-18T10:43:33.435Z,-3.87
2022-12-18T10:46:06.881Z,-4.13
2022-12-18T10:48:37.512Z,-3.88
2022-12-18T10:51:12.888Z,-4.09
2022-12-18T10:53:43.724Z,-3.35
2022-12-18T10:56:10.589Z,-2.64
2022-12-18T10:58:39.079Z,-2.16
2022-12-18T11:01:21.213Z,-1.77
2022-12-18T11:04:02.695Z,-2.08
2022-12-18T11:06:30.185Z,-1.73
2022-12-18T11:09:06.570Z,-2.50
2022-12-18T11:11:39.062Z,-1.23
2022-12-18T11:14:18.902Z,-0.62
2022-12-18T11:17:24.415Z,-1.51
2022-12-18T11:19:40.665Z,-0.94
2022-12-18T11:22:28.553Z,-1.98
2022-12-18T11:28:07.226Z,-1.50
2022-12-18T11:30:36.180Z,-0.20
2022-12-18T11:33:21.793Z,-0.94
2022-12-18T11:36:04.606Z,-0.83
2022-12-18T11:38:35.507Z,-0.86
2022-12-18T11:41:23.699Z,-2.80
2022-12-18T11:44:03.072Z,-2.35
2022-12-18T11:46:42.312Z,-2.00
2022-12-18T11:49:18.525Z,-2.05
2022-12-18T11:52:03.151Z,-2.84
2022-12-18T11:54:29.683Z,-3.12
2022-12-18T11:57:28.168Z,-2.53
2022-12-18T12:00:04.946Z,-3.60
2022-12-18T12:02:59.378Z,-3.30
2022-12-18T12:05:49.298Z,-3.76
2022-12-18T12:08:39.264Z,-3.92
2022-12-18T12:11:35.902Z,-4.22
2022-12-18T12:14:16.702Z,-4.17
2022-12-18T12:17:09.028Z,-2.72
2022-12-18T12:19:55.020Z,-3.73
2022-12-18T12:22:53.952Z,-4.07
2022-12-18T12:25:35.559Z,-4.08
2022-12-18T12:28:29.473Z,-3.60
2022-12-18T12:31:21.710Z,-4.09
2022-12-18T12:33:56.979Z,-3.29
2022-12-18T12:36:29.387Z,-3.57
2022-12-18T12:39:00.788Z,-3.62
2022-12-18T12:41:52.273Z,-3.42
2022-12-18T12:44:28.938Z,-2.60
2022-12-18T12:46:59.905Z,-2.33
2022-12-18T12:49:30.135Z,-2.83
2022-12-18T12:52:05.971Z,-3.13
2022-12-18T12:54:34.860Z,-2.59
2022-12-18T12:57:16.014Z,-2.71
2022-12-18T12:59:53.811Z,-3.19
2022-12-18T13:02:36.912Z,-3.57
2022-12-18T13:05:22.262Z,-3.56
2022-12-18T13:07:55.858Z,-4.04
2022-12-18T13:10:33.353Z,-4.05
2022-12-18T13:13:13.412Z,-4.13
2022-12-18T13:15:46.886Z,-4.29
2022-12-18T13:18:18.491Z,-4.00
2022-12-18T13:20:53.082Z,-4.53
2022-12-18T13:23:24.902Z,-4.18
2022-12-18T13:26:26.448Z,-3.76
2022-12-18T13:28:57.210Z,-3.37
2022-12-18T13:31:42.066Z,-3.45
2022-12-18T13:34:28.025Z,-3.27
2022-12-18T13:36:58.368Z,-3.49
2022-12-18T13:39:35.194Z,-3.43
2022-12-18T13:42:05.343Z,-3.93
2022-12-18T13:44:44.608Z,-4.38
2022-12-18T13:47:34.755Z,-4.20
2022-12-18T13:50:02.773Z,-4.28
2022-12-18T13:52:37.929Z,-4.18
2022-12-18T13:55:08.096Z,-4.18
2022-12-18T13:57:39.268Z,-4.18
2022-12-18T14:00:29.524Z,-4.00
2022-12-18T14:02:57.798Z,-4.39
2022-12-18T14:05:32.586Z,-4.52
2022-12-18T14:08:15.321Z,-4.69
2022-12-18T14:10:49.086Z,-4.75
2022-12-18T14:13:38.382Z,-4.21
2022-12-18T14:16:07.316Z,-4.45
2022-12-18T14:18:44.954Z,-4.08
2022-12-18T14:21:30.226Z,-4.24
2022-12-18T14:24:22.210Z,-4.68
2022-12-18T14:26:50.799Z,-4.62
2022-12-18T14:29:31.353Z,-4.72
2022-12-18T14:32:17.356Z,-4.57
2022-12-18T14:34:48.341Z,-4.49
2022-12-18T14:37:18.160Z,-4.62
2022-12-18T14:39:58.996Z,-4.97
2022-12-18T14:42:29.139Z,-5.14
2022-12-18T14:45:52.702Z,-5.13
2022-12-18T14:48:23.687Z,-5.32
2022-12-18T14:51:18.406Z,-5.14
2022-12-18T14:53:55.307Z,-5.19
2022-12-18T14:56:26.134Z,-5.02
2022-12-18T14:59:23.744Z,-5.18
2022-12-18T15:02:05.539Z,-4.82
2022-12-18T15:04:44.207Z,-4.74
2022-12-18T15:07:20.131Z,-5.17
2022-12-18T15:10:13.016Z,-4.88
2022-12-18T15:12:45.085Z,-4.89
2022-12-18T15:15:47.690Z,-4.75
2022-12-18T15:18:21.040Z,-5.17
2022-12-18T15:20:49.955Z,-5.08
2022-12-18T15:23:23.830Z,-5.20
2022-12-18T15:26:11.475Z,-4.99
2022-12-18T15:28:58.403Z,-4.86
2022-12-18T15:31:38.288Z,-4.80
2022-12-18T15:34:21.535Z,-4.80
2022-12-18T15:36:47.988Z,-4.86
2022-12-18T15:39:14.622Z,-4.69
2022-12-18T15:41:41.501Z,-4.71
2022-12-18T15:44:24.621Z,-4.87
2022-12-18T15:46:51.048Z,-5.30
2022-12-18T15:49:17.540Z,-5.27
2022-12-18T15:51:44.027Z,-5.12
2022-12-18T15:54:16.597Z,-5.24
2022-12-18T15:57:02.108Z,-5.18
2022-12-18T15:59:28.513Z,-5.46
2022-12-18T16:01:56.016Z,-5.14
2022-12-18T16:04:24.507Z,-5.38
2022-12-18T16:07:14.553Z,-5.21
2022-12-18T16:09:39.891Z,-5.44
2022-12-18T16:12:11.114Z,-5.42
2022-12-18T16:14:37.524Z,-5.26
2022-12-18T16:17:09.826Z,-5.37
2022-12-18T16:19:36.337Z,-5.62
2022-12-18T16:22:02.735Z,-5.78
2022-12-18T16:24:31.934Z,-5.54
2022-12-18T16:27:00.748Z,-5.54
2022-12-18T16:29:29.503Z,-5.69
2022-12-18T16:31:56.966Z,-5.48
2022-12-18T16:34:29.682Z,-5.38
2022-12-18T16:37:10.369Z,-5.15
2022-12-18T16:39:37.889Z,-5.64
2022-12-18T16:42:17.844Z,-5.51
2022-12-18T16:44:44.798Z,-5.35
2022-12-18T16:47:12.932Z,-5.56
2022-12-18T16:49:41.817Z,-5.65
2022-12-18T16:52:09.215Z,-5.73
2022-12-18T16:54:38.397Z,-5.47
2022-12-18T16:57:05.471Z,-5.45
2022-12-18T16:59:36.302Z,-5.35
2022-12-18T17:02:02.886Z,-5.54
2022-12-18T17:04:29.459Z,-5.52
2022-12-18T17:06:55.863Z,-5.29
2022-12-18T17:09:25.612Z,-5.24
2022-12-18T17:11:53.545Z,-5.20
2022-12-18T17:14:22.080Z,-5.17
2022-12-18T17:16:57.843Z,-5.27
2022-12-18T17:19:35.384Z,-5.76
2022-12-18T17:22:01.850Z,-5.45
2022-12-18T17:24:33.078Z,-5.36
2022-12-18T17:27:01.526Z,-5.39
2022-12-18T17:29:28.075Z,-5.48
2022-12-18T17:31:54.492Z,-5.39
2022-12-18T17:34:21.870Z,-5.43
2022-12-18T17:36:48.306Z,-5.17
2022-12-18T17:39:21.933Z,-5.26
2022-12-18T17:41:49.384Z,-4.96
2022-12-18T17:44:16.677Z,-5.16
2022-12-18T17:46:43.769Z,-5.42
2022-12-18T17:49:11.336Z,-5.38
2022-12-18T17:51:37.969Z,-5.53
2022-12-18T17:54:05.387Z,-5.22
2022-12-18T17:56:32.873Z,-5.20
2022-12-18T17:58:59.855Z,-5.20
2022-12-18T18:01:27.021Z,-5.25
2022-12-18T18:03:56.151Z,-5.12
2022-12-18T18:06:25.157Z,-4.96
2022-12-18T18:08:53.378Z,-5.10
2022-12-18T18:11:40.068Z,-5.12
2022-12-18T18:14:13.274Z,-5.13
2022-12-18T18:16:42.836Z,-5.11
2022-12-18T18:19:12.578Z,-5.05
2022-12-18T18:21:41.151Z,-5.00
2022-12-18T18:24:08.940Z,-5.23
2022-12-18T18:26:36.816Z,-5.28
2022-12-18T18:29:06.104Z,-4.87
2022-12-18T18:31:35.326Z,-5.24
2022-12-18T18:34:07.377Z,-4.94
2022-12-18T18:36:34.548Z,-4.83
2022-12-18T18:39:01.464Z,-4.94
2022-12-18T18:41:29.877Z,-5.15
2022-12-18T18:43:57.957Z,-5.03
2022-12-18T18:46:25.047Z,-5.17
2022-12-18T18:48:51.757Z,-5.00
2022-12-18T18:51:21.216Z,-5.06
2022-12-18T18:53:50.387Z,-4.94
2022-12-18T18:56:56.550Z,-4.89
2022-12-18T18:59:06.041Z,-5.07
2022-12-18T19:01:32.984Z,-4.97
2022-12-18T19:04:03.864Z,-5.03
2022-12-18T19:06:30.496Z,-5.05
2022-12-18T19:08:58.176Z,-4.71
2022-12-18T19:11:44.837Z,-4.85
2022-12-18T19:14:13.473Z,-4.73
2022-12-18T19:16:40.515Z,-4.73
2022-12-18T19:19:07.057Z,-4.72
2022-12-18T19:21:34.835Z,-4.70
2022-12-18T19:24:02.782Z,-4.69
2022-12-18T19:26:29.589Z,-4.60
2022-12-18T19:29:08.251Z,-4.43
2022-12-18T19:31:37.244Z,-4.52
2022-12-18T19:34:08.146Z,-4.53
2022-12-18T19:36:37.739Z,-4.57
2022-12-18T19:39:10.876Z,-4.56
2022-12-18T19:41:37.768Z,-4.71
2022-12-18T19:44:08.217Z,-4.61
2022-12-18T19:46:35.736Z,-4.55
2022-12-18T19:49:02.421Z,-4.66
2022-12-18T19:51:30.367Z,-4.56
2022-12-18T19:53:59.338Z,-4.60
2022-12-18T19:56:31.146Z,-4.51
2022-12-18T19:58:58.089Z,-4.45
2022-12-18T20:01:25.872Z,-4.57
2022-12-18T20:03:55.204Z,-4.53
2022-12-18T20:06:34.755Z,-4.26
2022-12-18T20:09:05.746Z,-4.11
2022-12-18T20:11:33.557Z,-4.01
2022-12-18T20:14:03.980Z,-3.86
2022-12-18T20:16:30.696Z,-3.57
2022-12-18T20:18:58.398Z,-3.71
2022-12-18T20:21:25.305Z,-3.27
2022-12-18T20:23:52.327Z,-3.20
2022-12-18T20:26:19.346Z,-3.22
2022-12-18T20:28:45.921Z,-3.17
2022-12-18T20:31:13.523Z,-3.18
2022-12-18T20:33:41.320Z,-3.16
2022-12-18T20:36:13.784Z,-3.56
2022-12-18T20:38:41.027Z,-3.64
2022-12-18T20:41:16.453Z,-3.76
2022-12-18T20:43:44.067Z,-3.83
2022-12-18T20:46:13.053Z,-3.62
2022-12-18T20:48:41.584Z,-3.51
2022-12-18T20:51:10.630Z,-3.39
2022-12-18T20:53:37.604Z,-3.36
2022-12-18T20:56:09.877Z,-3.22
2022-12-18T20:58:36.860Z,-3.46
2022-12-18T21:01:14.999Z,-3.43
2022-12-18T21:03:43.046Z,-3.28
2022-12-18T21:06:10.525Z,-3.33
2022-12-18T21:08:37.605Z,-3.26
2022-12-18T21:11:54.776Z,-3.03
2022-12-18T21:14:24.085Z,-3.09
2022-12-18T21:16:51.068Z,-3.06
2022-12-18T21:19:20.696Z,-2.97
2022-12-18T21:21:47.372Z,-2.82
2022-12-18T21:24:14.305Z,-3.04
2022-12-18T21:26:45.384Z,-2.94
2022-12-18T21:29:15.976Z,-2.86
2022-12-18T21:31:43.234Z,-2.93
2022-12-18T21:34:16.220Z,-2.89
2022-12-18T21:36:42.615Z,-3.02
2022-12-18T21:39:09.096Z,-2.91
2022-12-18T21:41:55.357Z,-2.79
2022-12-18T21:44:23.155Z,-2.93
2022-12-18T21:46:56.768Z,-3.09
2022-12-18T21:49:26.807Z,-2.97
2022-12-18T21:51:55.869Z,-3.01
2022-12-18T21:54:22.826Z,-3.02
2022-12-18T21:56:52.281Z,-3.03
2022-12-18T21:59:21.832Z,-3.06
2022-12-18T22:01:49.528Z,-2.92
2022-12-18T22:04:16.974Z,-2.95
2022-12-18T22:06:44.360Z,-2.91
2022-12-18T22:09:14.152Z,-2.81
2022-12-18T22:11:40.784Z,-2.84
2022-12-18T22:14:07.233Z,-2.87
2022-12-18T22:16:34.230Z,-2.86
2022-12-18T22:19:02.366Z,-3.04
2022-12-18T22:21:31.059Z,-2.97
2022-12-18T22:24:06.107Z,-3.07
2022-12-18T22:26:39.774Z,-3.00
2022-12-18T22:29:26.437Z,-2.98
2022-12-18T22:31:52.905Z,-2.92
2022-12-18T22:34:22.792Z,-2.87
2022-12-18T22:36:49.792Z,-2.91
2022-12-18T22:39:22.125Z,-2.84
2022-12-18T22:41:49.474Z,-2.74
2022-12-18T22:44:17.548Z,-2.93
2022-12-18T22:47:06.051Z,-2.72
2022-12-18T22:49:34.793Z,-2.80
2022-12-18T22:52:02.113Z,-2.59
2022-12-18T22:54:28.538Z,-2.57
2022-12-18T22:56:55.453Z,-2.65
2022-12-18T22:59:23.221Z,-2.61
2022-12-18T23:01:52.925Z,-2.54
2022-12-18T23:04:36.152Z,-2.50
2022-12-18T23:07:05.157Z,-2.56
2022-12-18T23:09:32.378Z,-2.52
2022-12-18T23:11:59.166Z,-2.48
2022-12-18T23:14:25.622Z,-2.58
2022-12-18T23:16:53.241Z,-2.52
2022-12-18T23:19:20.181Z,-2.49
2022-12-18T23:21:47.128Z,-2.39
2022-12-18T23:24:14.440Z,-2.51
2022-12-18T23:26:41.165Z,-2.50
2022-12-18T23:29:08.062Z,-2.36
2022-12-18T23:31:37.400Z,-2.30
2022-12-18T23:34:05.667Z,-2.24
2022-12-18T23:36:35.911Z,-2.21
2022-12-18T23:39:28.392Z,-2.18
2022-12-18T23:41:56.146Z,-2.09
2022-12-18T23:44:22.596Z,-1.96
2022-12-18T23:46:49.198Z,-1.96
2022-12-18T23:49:15.648Z,-1.80
2022-12-18T23:51:42.134Z,-1.92
2022-12-18T23:54:10.012Z,-2.09
2022-12-18T23:56:36.485Z,-1.98
2022-12-18T23:59:02.947Z,-1.82
